Search for airport 
image banner adimage banner adimage banner ad
image banner ad

W05 - Gettysburg Rgnl

Located in Gettysburg, United States

ICAO - W05, IATA -

Data provided by Airmate  

General information

Coordinates: N39°50'29" W77°16'29"
Elevation is 553 feet MSL.
Magnetic variation is -11° East
View others Airports in Pennsylvania

Operational data

Special qualification required
Current time UTC:
Current local time:
METAR: KDMW 091415Z AUTO 19005KT 10SM BKN070 11/04 A3010 RMK AO2
View NOTAMs / SUP AIP / TFR affecting this airport [VIEW]
Communications frequencies: [VIEW]

Runways:

RWY identifierQFULength (ft)Width (ft)SurfaceLDA (ft)
0650°310060ASPH
24230°310060ASPH

Airport contact information

Address: Gettysburg United States

Satellite view of W05